Hlavní strana
METAR-TAF:

METAR-TAF

Letiště :

Kalmar, Švédsko

zeměpisná šířka: 56-44N, zeměpisná délka: 016-18E, výška: 16 m

Aktuální stav počasí

Zpráva byla vytvořena před 33 minutami, v 17:20 UTC
Západojihozápadní vítr 10 kt
Teplota -2°C
Vlhkost vzduchu 74%
Tlak 1010 hPa
Viditelnost 10 km a více
Žádná oblačnost pod 1500 m, nevyskytují se cumulonimby.

METAR: ESMQ 181720Z 25010KT CAVOK M02/M06 Q1010

Čas: 18:53 (17:53 UTC)

Předpověď počasí

Zpráva byla vytvořena před 23 minutami, v 17:30 UTC
Předpověď platná od 18 v 18 UTC do 18 v 23 UTC
Západní vítr 9 kt
Viditelnost 10 km a více
Žádná oblačnost pod 1500 m, nevyskytují se cumulonimby.

TAF: ESMQ 181730Z 1818/1823 27009KT CAVOK

Stav a předpovědi počasí z více než 4 000 letišť (zprávy METAR a TAF).

Červené a žluté tečky na mapě představují dostupné meteorologické stanice.

Když kurzor umístíte na tečku, zobrazí se název stanice.

Pak kliknutím zobrazíte stav a předpověď počasí.

Chcete-li změnit mapu, kliknutím na zelené tlačítko se znaménkem +mapu přiblížíte, kliknutím na zelené tlačítko se znaménkem – mapu oddálíte a kliknutím na zelené šipky přejdete na sousední mapy.


METAR-TAF: